sensor_id;sensor_type;location;lat;lon;timestamp;pressure;altitude;pressure_sealevel;temperature;humidity
20696;BME280;10507;52.754;13.040;2022-09-01T00:01:17;101682.19;;;14.30;100.00
20696;BME280;10507;52.754;13.040;2022-09-01T00:03:47;101685.66;;;14.32;100.00
20696;BME280;10507;52.754;13.040;2022-09-01T00:06:21;101686.53;;;14.32;100.00
20696;BME280;10507;52.754;13.040;2022-09-01T00:08:50;101675.03;;;14.30;100.00
20696;BME280;10507;52.754;13.040;2022-09-01T00:11:19;101690.13;;;14.33;100.00
20696;BME280;10507;52.754;13.040;2022-09-01T00:13:49;101678.69;;;14.28;100.00
20696;BME280;10507;52.754;13.040;2022-09-01T00:16:18;101684.97;;;14.28;100.00
20696;BME280;10507;52.754;13.040;2022-09-01T00:18:48;101684.06;;;14.28;100.00
20696;BME280;10507;52.754;13.040;2022-09-01T00:21:22;101680.47;;;14.29;100.00
20696;BME280;10507;52.754;13.040;2022-09-01T00:23:50;101675.16;;;14.27;100.00
20696;BME280;10507;52.754;13.040;2022-09-01T00:26:18;101682.34;;;14.27;100.00
20696;BME280;10507;52.754;13.040;2022-09-01T00:28:46;101685.09;;;14.25;100.00
20696;BME280;10507;52.754;13.040;2022-09-01T00:31:15;101664.47;;;14.26;100.00
20696;BME280;10507;52.754;13.040;2022-09-01T00:33:46;101664.47;;;14.26;100.00
20696;BME280;10507;52.754;13.040;2022-09-01T00:36:14;101667.94;;;14.28;100.00
20696;BME280;10507;52.754;13.040;2022-09-01T00:38:44;101664.34;;;14.29;100.00
20696;BME280;10507;52.754;13.040;2022-09-01T00:41:13;101649.25;;;14.26;100.00
20696;BME280;10507;52.754;13.040;2022-09-01T00:43:44;101648.22;;;14.29;99.83
20696;BME280;10507;52.754;13.040;2022-09-01T00:46:16;101638.50;;;14.26;99.62
20696;BME280;10507;52.754;13.040;2022-09-01T00:48:58;101634.84;;;14.27;99.44
20696;BME280;10507;52.754;13.040;2022-09-01T00:51:27;101618.75;;;14.27;98.87
20696;BME280;10507;52.754;13.040;2022-09-01T00:53:57;101628.56;;;14.28;98.88
20696;BME280;10507;52.754;13.040;2022-09-01T00:56:25;101631.13;;;14.30;98.90
20696;BME280;10507;52.754;13.040;2022-09-01T00:58:53;101637.47;;;14.29;99.09
20696;BME280;10507;52.754;13.040;2022-09-01T01:01:25;101624.97;;;14.28;98.49
20696;BME280;10507;52.754;13.040;2022-09-01T01:03:53;101615.19;;;14.27;98.25
20696;BME280;10507;52.754;13.040;2022-09-01T01:06:21;101614.38;;;14.25;98.24
20696;BME280;10507;52.754;13.040;2022-09-01T01:08:59;101607.94;;;14.29;98.03
20696;BME280;10507;52.754;13.040;2022-09-01T01:11:29;101615.19;;;14.27;98.19
20696;BME280;10507;52.754;13.040;2022-09-01T01:13:59;101624.19;;;14.26;98.54
20696;BME280;10507;52.754;13.040;2022-09-01T01:16:31;101626.00;;;14.25;98.83
20696;BME280;10507;52.754;13.040;2022-09-01T01:19:02;101628.78;;;14.24;99.22
20696;BME280;10507;52.754;13.040;2022-09-01T01:21:34;101647.41;;;14.27;98.80
20696;BME280;10507;52.754;13.040;2022-09-01T01:24:25;101635.88;;;14.25;98.92
20696;BME280;10507;52.754;13.040;2022-09-01T01:26:54;101649.25;;;14.26;99.16
20696;BME280;10507;52.754;13.040;2022-09-01T01:29:25;101650.13;;;14.27;99.03
20696;BME280;10507;52.754;13.040;2022-09-01T01:31:55;101659.09;;;14.26;99.68
20696;BME280;10507;52.754;13.040;2022-09-01T01:34:23;101659.81;;;14.29;99.60
20696;BME280;10507;52.754;13.040;2022-09-01T01:36:51;101661.66;;;14.29;99.90
20696;BME280;10507;52.754;13.040;2022-09-01T01:39:21;101669.78;;;14.27;99.87
20696;BME280;10507;52.754;13.040;2022-09-01T01:41:53;101680.47;;;14.29;100.00
20696;BME280;10507;52.754;13.040;2022-09-01T01:44:24;101682.34;;;14.27;100.00
20696;BME280;10507;52.754;13.040;2022-09-01T01:46:55;101681.47;;;14.26;100.00
20696;BME280;10507;52.754;13.040;2022-09-01T01:49:26;101686.91;;;14.25;100.00
20696;BME280;10507;52.754;13.040;2022-09-01T01:51:54;101680.59;;;14.26;100.00
20696;BME280;10507;52.754;13.040;2022-09-01T01:54:24;101701.22;;;14.25;100.00
20696;BME280;10507;52.754;13.040;2022-09-01T01:57:00;101681.72;;;14.22;100.00
20696;BME280;10507;52.754;13.040;2022-09-01T01:59:36;101688.00;;;14.21;100.00
20696;BME280;10507;52.754;13.040;2022-09-01T02:02:06;101698.91;;;14.18;100.00
20696;BME280;10507;52.754;13.040;2022-09-01T02:04:35;101686.56;;;14.13;100.00
20696;BME280;10507;52.754;13.040;2022-09-01T02:07:08;101684.34;;;14.04;100.00
20696;BME280;10507;52.754;13.040;2022-09-01T02:09:38;101701.75;;;13.96;100.00
20696;BME280;10507;52.754;13.040;2022-09-01T02:12:11;101704.88;;;13.86;100.00
20696;BME280;10507;52.754;13.040;2022-09-01T02:14:41;101700.00;;;13.76;100.00
20696;BME280;10507;52.754;13.040;2022-09-01T02:17:09;101704.19;;;13.62;100.00
20696;BME280;10507;52.754;13.040;2022-09-01T02:19:37;101706.50;;;13.51;100.00
20696;BME280;10507;52.754;13.040;2022-09-01T02:22:08;101711.53;;;13.38;100.00
20696;BME280;10507;52.754;13.040;2022-09-01T02:24:37;101727.97;;;13.30;100.00
20696;BME280;10507;52.754;13.040;2022-09-01T02:27:13;101724.72;;;13.22;100.00
20696;BME280;10507;52.754;13.040;2022-09-01T02:29:47;101723.38;;;13.12;100.00
20696;BME280;10507;52.754;13.040;2022-09-01T02:32:20;101723.78;;;13.03;100.00
20696;BME280;10507;52.754;13.040;2022-09-01T02:34:49;101725.88;;;12.96;100.00
20696;BME280;10507;52.754;13.040;2022-09-01T02:37:19;101720.69;;;12.92;100.00
20696;BME280;10507;52.754;13.040;2022-09-01T02:39:51;101722.81;;;12.83;100.00
20696;BME280;10507;52.754;13.040;2022-09-01T02:42:20;101719.53;;;12.77;100.00
20696;BME280;10507;52.754;13.040;2022-09-01T02:44:53;101715.28;;;12.71;100.00
20696;BME280;10507;52.754;13.040;2022-09-01T02:47:21;101740.41;;;12.68;100.00
20696;BME280;10507;52.754;13.040;2022-09-01T02:49:55;101723.78;;;12.60;100.00
20696;BME280;10507;52.754;13.040;2022-09-01T02:52:24;101740.06;;;12.56;100.00
20696;BME280;10507;52.754;13.040;2022-09-01T02:54:55;101733.31;;;12.45;100.00
20696;BME280;10507;52.754;13.040;2022-09-01T02:57:26;101738.91;;;12.39;100.00
20696;BME280;10507;52.754;13.040;2022-09-01T02:59:54;101742.78;;;12.32;100.00
20696;BME280;10507;52.754;13.040;2022-09-01T03:02:25;101746.63;;;12.25;100.00
20696;BME280;10507;52.754;13.040;2022-09-01T03:04:54;101745.22;;;12.15;100.00
20696;BME280;10507;52.754;13.040;2022-09-01T03:07:23;101744.72;;;12.05;100.00
20696;BME280;10507;52.754;13.040;2022-09-01T03:09:52;101743.28;;;11.96;100.00
20696;BME280;10507;52.754;13.040;2022-09-01T03:12:20;101754.13;;;11.93;100.00
20696;BME280;10507;52.754;13.040;2022-09-01T03:14:49;101758.75;;;11.88;100.00
20696;BME280;10507;52.754;13.040;2022-09-01T03:17:17;101750.13;;;11.80;100.00
20696;BME280;10507;52.754;13.040;2022-09-01T03:19:47;101750.38;;;11.72;100.00
20696;BME280;10507;52.754;13.040;2022-09-01T03:22:17;101757.53;;;11.72;100.00
20696;BME280;10507;52.754;13.040;2022-09-01T03:24:45;101755.16;;;11.64;100.00
20696;BME280;10507;52.754;13.040;2022-09-01T03:27:12;101765.03;;;11.62;100.00
20696;BME280;10507;52.754;13.040;2022-09-01T03:29:40;101751.19;;;11.51;100.00
20696;BME280;10507;52.754;13.040;2022-09-01T03:32:09;101758.66;;;11.41;100.00
20696;BME280;10507;52.754;13.040;2022-09-01T03:34:40;101746.75;;;11.24;100.00
20696;BME280;10507;52.754;13.040;2022-09-01T03:37:08;101760.28;;;11.20;100.00
20696;BME280;10507;52.754;13.040;2022-09-01T03:39:40;101764.19;;;11.10;100.00
20696;BME280;10507;52.754;13.040;2022-09-01T03:42:08;101766.19;;;11.03;100.00
20696;BME280;10507;52.754;13.040;2022-09-01T03:44:38;101763.75;;;10.97;100.00
20696;BME280;10507;52.754;13.040;2022-09-01T03:47:07;101771.97;;;10.91;100.00
20696;BME280;10507;52.754;13.040;2022-09-01T03:49:42;101783.69;;;10.87;100.00
20696;BME280;10507;52.754;13.040;2022-09-01T03:52:10;101783.78;;;10.84;100.00
20696;BME280;10507;52.754;13.040;2022-09-01T03:54:38;101787.53;;;10.78;100.00
20696;BME280;10507;52.754;13.040;2022-09-01T03:57:06;101803.56;;;10.78;100.00
20696;BME280;10507;52.754;13.040;2022-09-01T03:59:36;101801.09;;;10.72;100.00
20696;BME280;10507;52.754;13.040;2022-09-01T04:02:11;101801.28;;;10.66;100.00
20696;BME280;10507;52.754;13.040;2022-09-01T04:04:42;101807.59;;;10.63;100.00
20696;BME280;10507;52.754;13.040;2022-09-01T04:07:11;101810.34;;;10.60;100.00
20696;BME280;10507;52.754;13.040;2022-09-01T04:09:44;101826.19;;;10.66;100.00
20696;BME280;10507;52.754;13.040;2022-09-01T04:12:12;101820.81;;;10.68;100.00
20696;BME280;10507;52.754;13.040;2022-09-01T04:14:41;101822.69;;;10.64;100.00
20696;BME280;10507;52.754;13.040;2022-09-01T04:24:44;101825.41;;;10.63;100.00
20696;BME280;10507;52.754;13.040;2022-09-01T04:27:13;101830.81;;;10.61;100.00
20696;BME280;10507;52.754;13.040;2022-09-01T04:29:43;101815.84;;;10.55;100.00
20696;BME280;10507;52.754;13.040;2022-09-01T04:32:12;101819.53;;;10.51;100.00
20696;BME280;10507;52.754;13.040;2022-09-01T04:34:41;101827.47;;;10.54;100.00
20696;BME280;10507;52.754;13.040;2022-09-01T04:37:10;101838.91;;;10.58;100.00
20696;BME280;10507;52.754;13.040;2022-09-01T04:39:40;101845.91;;;10.62;100.00
20696;BME280;10507;52.754;13.040;2022-09-01T04:42:18;101840.56;;;10.62;100.00
20696;BME280;10507;52.754;13.040;2022-09-01T04:44:47;101849.28;;;10.67;100.00
20696;BME280;10507;52.754;13.040;2022-09-01T04:47:15;101831.53;;;10.66;100.00
20696;BME280;10507;52.754;13.040;2022-09-01T04:49:45;101831.56;;;10.65;100.00
20696;BME280;10507;52.754;13.040;2022-09-01T04:52:14;101846.44;;;10.73;100.00
20696;BME280;10507;52.754;13.040;2022-09-01T04:54:42;101847.28;;;10.75;100.00
20696;BME280;10507;52.754;13.040;2022-09-01T04:57:10;101847.19;;;10.78;100.00
20696;BME280;10507;52.754;13.040;2022-09-01T04:59:40;101852.31;;;10.85;100.00
20696;BME280;10507;52.754;13.040;2022-09-01T05:02:08;101861.88;;;10.92;100.00
20696;BME280;10507;52.754;13.040;2022-09-01T05:04:37;101867.03;;;10.98;100.00
20696;BME280;10507;52.754;13.040;2022-09-01T05:07:06;101863.25;;;11.05;100.00
20696;BME280;10507;52.754;13.040;2022-09-01T05:09:35;101848.84;;;11.09;100.00
20696;BME280;10507;52.754;13.040;2022-09-01T05:12:04;101846.03;;;11.14;100.00
20696;BME280;10507;52.754;13.040;2022-09-01T05:14:44;101825.47;;;11.16;100.00
20696;BME280;10507;52.754;13.040;2022-09-01T05:17:14;101815.59;;;11.18;100.00
20696;BME280;10507;52.754;13.040;2022-09-01T05:19:45;101815.41;;;11.24;100.00
20696;BME280;10507;52.754;13.040;2022-09-01T05:22:14;101831.78;;;11.40;100.00
20696;BME280;10507;52.754;13.040;2022-09-01T05:24:43;101809.91;;;11.54;100.00
20696;BME280;10507;52.754;13.040;2022-09-01T05:27:11;101795.34;;;11.62;100.00
20696;BME280;10507;52.754;13.040;2022-09-01T05:29:40;101783.91;;;11.82;100.00
20696;BME280;10507;52.754;13.040;2022-09-01T05:32:09;101757.53;;;11.97;100.00
20696;BME280;10507;52.754;13.040;2022-09-01T05:34:38;101725.03;;;12.06;100.00
20696;BME280;10507;52.754;13.040;2022-09-01T05:37:09;101702.53;;;12.12;100.00
20696;BME280;10507;52.754;13.040;2022-09-01T05:39:39;101696.13;;;12.16;100.00
20696;BME280;10507;52.754;13.040;2022-09-01T05:42:11;101672.94;;;12.15;100.00
20696;BME280;10507;52.754;13.040;2022-09-01T05:44:39;101703.66;;;12.28;100.00
20696;BME280;10507;52.754;13.040;2022-09-01T05:47:12;101730.47;;;12.93;100.00
20696;BME280;10507;52.754;13.040;2022-09-01T05:49:47;101756.91;;;14.22;100.00
20696;BME280;10507;52.754;13.040;2022-09-01T05:52:15;101726.34;;;15.49;100.00
20696;BME280;10507;52.754;13.040;2022-09-01T05:54:44;101594.97;;;16.19;98.86
20696;BME280;10507;52.754;13.040;2022-09-01T05:57:15;101492.97;;;16.87;93.33
20696;BME280;10507;52.754;13.040;2022-09-01T05:59:59;101449.66;;;17.85;88.57
20696;BME280;10507;52.754;13.040;2022-09-01T06:02:29;101463.72;;;18.82;84.92
20696;BME280;10507;52.754;13.040;2022-09-01T06:04:59;101372.72;;;19.29;81.79
20696;BME280;10507;52.754;13.040;2022-09-01T06:07:27;101298.28;;;19.35;80.56
20696;BME280;10507;52.754;13.040;2022-09-01T06:09:54;101288.63;;;19.55;79.87
20696;BME280;10507;52.754;13.040;2022-09-01T06:12:23;101243.06;;;19.48;79.64
20696;BME280;10507;52.754;13.040;2022-09-01T06:14:53;101266.06;;;19.78;79.71
20696;BME280;10507;52.754;13.040;2022-09-01T06:17:22;101239.69;;;19.69;78.91
20696;BME280;10507;52.754;13.040;2022-09-01T06:19:53;101251.28;;;20.16;77.42
20696;BME280;10507;52.754;13.040;2022-09-01T06:22:23;101283.00;;;20.82;75.77
20696;BME280;10507;52.754;13.040;2022-09-01T06:24:51;101025.75;;;20.11;76.13
20696;BME280;10507;52.754;13.040;2022-09-01T06:27:27;101277.63;;;20.59;76.49
20696;BME280;10507;52.754;13.040;2022-09-01T06:29:55;101227.06;;;21.23;74.39
20696;BME280;10507;52.754;13.040;2022-09-01T06:32:24;101005.16;;;20.41;75.02
20696;BME280;10507;52.754;13.040;2022-09-01T06:34:54;101249.28;;;21.28;75.09
20696;BME280;10507;52.754;13.040;2022-09-01T06:37:23;101084.13;;;21.22;73.64
20696;BME280;10507;52.754;13.040;2022-09-01T06:39:52;101211.53;;;21.46;73.71
20696;BME280;10507;52.754;13.040;2022-09-01T06:42:20;101278.81;;;22.15;72.27
20696;BME280;10507;52.754;13.040;2022-09-01T06:44:49;101096.13;;;21.90;71.65
20696;BME280;10507;52.754;13.040;2022-09-01T06:47:17;101001.91;;;21.50;72.17
20696;BME280;10507;52.754;13.040;2022-09-01T06:49:45;100994.63;;;21.61;72.26
20696;BME280;10507;52.754;13.040;2022-09-01T06:52:14;101054.34;;;22.01;71.49
20696;BME280;10507;52.754;13.040;2022-09-01T06:54:42;100936.72;;;21.79;71.58
20696;BME280;10507;52.754;13.040;2022-09-01T06:57:10;100972.50;;;21.85;70.99
20696;BME280;10507;52.754;13.040;2022-09-01T06:59:58;101239.03;;;22.45;71.54
20696;BME280;10507;52.754;13.040;2022-09-01T07:02:26;101061.25;;;22.63;69.79
20696;BME280;10507;52.754;13.040;2022-09-01T07:04:59;101115.94;;;23.09;69.13
20696;BME280;10507;52.754;13.040;2022-09-01T07:07:28;101132.19;;;23.01;69.10
20696;BME280;10507;52.754;13.040;2022-09-01T07:10:20;101093.22;;;23.38;67.77
20696;BME280;10507;52.754;13.040;2022-09-01T07:12:48;101131.72;;;23.62;67.03
20696;BME280;10507;52.754;13.040;2022-09-01T07:15:32;101130.53;;;24.02;66.10
20696;BME280;10507;52.754;13.040;2022-09-01T07:18:22;101133.63;;;24.35;65.59
20696;BME280;10507;52.754;13.040;2022-09-01T07:20:52;101151.59;;;25.18;62.40
20696;BME280;10507;52.754;13.040;2022-09-01T07:23:34;101121.81;;;25.06;62.82
20696;BME280;10507;52.754;13.040;2022-09-01T07:26:24;100933.56;;;24.61;63.38
20696;BME280;10507;52.754;13.040;2022-09-01T07:28:53;100799.63;;;24.62;61.34
20696;BME280;10507;52.754;13.040;2022-09-01T07:31:34;100631.63;;;23.57;63.63
20696;BME280;10507;52.754;13.040;2022-09-01T07:34:24;100964.13;;;24.02;66.14
20696;BME280;10507;52.754;13.040;2022-09-01T07:37:13;101104.00;;;24.76;64.89
20696;BME280;10507;52.754;13.040;2022-09-01T07:40:04;100910.50;;;24.55;64.27
20696;BME280;10507;52.754;13.040;2022-09-01T07:42:54;100986.13;;;24.89;63.08
20696;BME280;10507;52.754;13.040;2022-09-01T07:45:28;100773.06;;;24.46;63.43
20696;BME280;10507;52.754;13.040;2022-09-01T07:47:57;100723.28;;;23.58;65.34
20696;BME280;10507;52.754;13.040;2022-09-01T07:50:33;100754.06;;;23.50;65.60
20696;BME280;10507;52.754;13.040;2022-09-01T07:53:26;100813.66;;;23.89;64.53
20696;BME280;10507;52.754;13.040;2022-09-01T07:56:07;100888.75;;;24.72;61.68
20696;BME280;10507;52.754;13.040;2022-09-01T07:58:42;100791.38;;;24.28;63.52
20696;BME280;10507;52.754;13.040;2022-09-01T08:01:11;100641.63;;;24.17;62.53
20696;BME280;10507;52.754;13.040;2022-09-01T08:03:42;100742.91;;;24.14;63.72
20696;BME280;10507;52.754;13.040;2022-09-01T08:06:13;100755.53;;;24.49;61.94
20696;BME280;10507;52.754;13.040;2022-09-01T08:08:45;100667.94;;;23.92;63.90
20696;BME280;10507;52.754;13.040;2022-09-01T08:11:18;100586.97;;;23.58;64.37
20696;BME280;10507;52.754;13.040;2022-09-01T08:14:08;100581.88;;;23.55;63.93
20696;BME280;10507;52.754;13.040;2022-09-01T08:16:36;100601.84;;;23.11;64.16
20696;BME280;10507;52.754;13.040;2022-09-01T08:19:17;100647.56;;;22.99;64.68
20696;BME280;10507;52.754;13.040;2022-09-01T08:21:44;100551.13;;;22.66;64.89
20696;BME280;10507;52.754;13.040;2022-09-01T08:24:12;100566.69;;;22.38;65.67
20696;BME280;10507;52.754;13.040;2022-09-01T08:26:42;100611.59;;;22.24;66.99
20696;BME280;10507;52.754;13.040;2022-09-01T08:29:10;100652.75;;;22.11;66.77
20696;BME280;10507;52.754;13.040;2022-09-01T08:31:38;100621.81;;;22.12;65.65
20696;BME280;10507;52.754;13.040;2022-09-01T08:34:06;100714.84;;;22.16;66.89
20696;BME280;10507;52.754;13.040;2022-09-01T08:36:35;100594.28;;;21.97;65.45
20696;BME280;10507;52.754;13.040;2022-09-01T08:39:03;100697.88;;;22.04;66.25
20696;BME280;10507;52.754;13.040;2022-09-01T08:41:41;100645.97;;;21.88;66.02
20696;BME280;10507;52.754;13.040;2022-09-01T08:44:23;100739.25;;;21.98;67.21
20696;BME280;10507;52.754;13.040;2022-09-01T08:47:00;100639.81;;;21.95;64.66
20696;BME280;10507;52.754;13.040;2022-09-01T08:49:30;100559.47;;;21.55;64.49
20696;BME280;10507;52.754;13.040;2022-09-01T08:52:17;100572.94;;;21.47;64.78
20696;BME280;10507;52.754;13.040;2022-09-01T08:54:48;100685.03;;;21.49;66.31
20696;BME280;10507;52.754;13.040;2022-09-01T08:57:19;100708.41;;;21.70;66.33
20696;BME280;10507;52.754;13.040;2022-09-01T08:59:51;100624.66;;;21.55;64.32
20696;BME280;10507;52.754;13.040;2022-09-01T09:02:33;100592.19;;;21.54;64.15
20696;BME280;10507;52.754;13.040;2022-09-01T09:05:05;100609.84;;;21.30;65.12
20696;BME280;10507;52.754;13.040;2022-09-01T09:07:55;100695.59;;;21.52;65.15
20696;BME280;10507;52.754;13.040;2022-09-01T09:10:39;100586.41;;;21.29;64.18
20696;BME280;10507;52.754;13.040;2022-09-01T09:13:14;100563.25;;;21.25;64.55
20696;BME280;10507;52.754;13.040;2022-09-01T09:15:51;100794.41;;;21.51;67.99
20696;BME280;10507;52.754;13.040;2022-09-01T09:18:38;100546.19;;;20.95;65.12
20696;BME280;10507;52.754;13.040;2022-09-01T09:21:24;100599.88;;;21.21;63.83
20696;BME280;10507;52.754;13.040;2022-09-01T09:23:59;100558.50;;;21.37;62.49
20696;BME280;10507;52.754;13.040;2022-09-01T09:26:30;100661.72;;;21.37;65.45
20696;BME280;10507;52.754;13.040;2022-09-01T09:29:13;100458.00;;;20.52;64.01
20696;BME280;10507;52.754;13.040;2022-09-01T09:31:42;100576.81;;;20.68;65.19
20696;BME280;10507;52.754;13.040;2022-09-01T09:34:26;100703.34;;;21.08;66.32
20696;BME280;10507;52.754;13.040;2022-09-01T09:37:14;100741.38;;;21.28;66.22
20696;BME280;10507;52.754;13.040;2022-09-01T09:39:42;100529.38;;;20.92;63.03
20696;BME280;10507;52.754;13.040;2022-09-01T09:42:12;100608.44;;;21.16;63.93
20696;BME280;10507;52.754;13.040;2022-09-01T09:44:43;100497.66;;;20.83;63.19
20696;BME280;10507;52.754;13.040;2022-09-01T09:47:37;100714.88;;;21.30;64.93
20696;BME280;10507;52.754;13.040;2022-09-01T09:50:24;100655.13;;;21.39;63.65
20696;BME280;10507;52.754;13.040;2022-09-01T09:53:10;100666.13;;;21.57;63.74
20696;BME280;10507;52.754;13.040;2022-09-01T09:55:51;100729.63;;;21.47;66.28
20696;BME280;10507;52.754;13.040;2022-09-01T09:58:23;100697.34;;;21.14;67.66
20696;BME280;10507;52.754;13.040;2022-09-01T10:01:05;100710.00;;;20.15;70.38
20696;BME280;10507;52.754;13.040;2022-09-01T10:03:41;100800.03;;;20.09;71.09
20696;BME280;10507;52.754;13.040;2022-09-01T10:06:12;100869.97;;;20.36;70.97
20696;BME280;10507;52.754;13.040;2022-09-01T10:08:42;100897.84;;;20.48;71.48
20696;BME280;10507;52.754;13.040;2022-09-01T10:11:24;100889.69;;;20.69;70.55
20696;BME280;10507;52.754;13.040;2022-09-01T10:14:04;100805.19;;;20.43;69.47
20696;BME280;10507;52.754;13.040;2022-09-01T10:16:36;100893.34;;;20.89;68.96
20696;BME280;10507;52.754;13.040;2022-09-01T10:19:11;100873.25;;;21.11;68.61
20696;BME280;10507;52.754;13.040;2022-09-01T10:21:43;100822.09;;;21.16;67.15
20696;BME280;10507;52.754;13.040;2022-09-01T10:24:18;100884.63;;;21.45;66.98
20696;BME280;10507;52.754;13.040;2022-09-01T10:26:58;100776.84;;;21.46;65.75
20696;BME280;10507;52.754;13.040;2022-09-01T10:29:30;100828.44;;;21.55;66.18
20696;BME280;10507;52.754;13.040;2022-09-01T10:32:10;100699.19;;;21.24;64.96
20696;BME280;10507;52.754;13.040;2022-09-01T10:35:01;100823.84;;;21.66;65.32
20696;BME280;10507;52.754;13.040;2022-09-01T10:37:30;100762.06;;;21.68;64.74
20696;BME280;10507;52.754;13.040;2022-09-01T10:40:19;100665.72;;;21.33;64.31
20696;BME280;10507;52.754;13.040;2022-09-01T10:42:58;100617.34;;;20.80;64.81
20696;BME280;10507;52.754;13.040;2022-09-01T10:45:32;100802.97;;;21.17;66.10
20696;BME280;10507;52.754;13.040;2022-09-01T10:48:25;100770.53;;;21.55;64.06
20696;BME280;10507;52.754;13.040;2022-09-01T10:54:06;100706.34;;;21.05;65.79
20696;BME280;10507;52.754;13.040;2022-09-01T10:56:39;100810.22;;;21.07;67.38
20696;BME280;10507;52.754;13.040;2022-09-01T10:59:23;100797.38;;;21.29;66.23
20696;BME280;10507;52.754;13.040;2022-09-01T11:02:12;100576.50;;;20.91;63.43
20696;BME280;10507;52.754;13.040;2022-09-01T11:05:19;100561.09;;;20.52;63.33
20696;BME280;10507;52.754;13.040;2022-09-01T11:07:47;100490.16;;;20.28;62.23
20696;BME280;10507;52.754;13.040;2022-09-01T11:10:48;100686.47;;;20.66;64.28
20696;BME280;10507;52.754;13.040;2022-09-01T11:13:32;100768.22;;;21.11;64.59
20696;BME280;10507;52.754;13.040;2022-09-01T11:16:28;100830.56;;;21.32;65.59
20696;BME280;10507;52.754;13.040;2022-09-01T11:19:32;100679.88;;;21.27;62.84
20696;BME280;10507;52.754;13.040;2022-09-01T11:22:12;100739.63;;;21.36;63.10
20696;BME280;10507;52.754;13.040;2022-09-01T11:28:40;100807.56;;;21.56;64.67
20696;BME280;10507;52.754;13.040;2022-09-01T11:31:30;100729.34;;;21.59;63.41
20696;BME280;10507;52.754;13.040;2022-09-01T11:34:06;100597.06;;;21.03;62.38
20696;BME280;10507;52.754;13.040;2022-09-01T11:36:46;100691.34;;;21.11;63.50
20696;BME280;10507;52.754;13.040;2022-09-01T11:39:27;100666.06;;;21.10;63.03
20696;BME280;10507;52.754;13.040;2022-09-01T11:41:58;100722.47;;;21.16;64.06
20696;BME280;10507;52.754;13.040;2022-09-01T11:44:36;100621.91;;;20.89;63.32
20696;BME280;10507;52.754;13.040;2022-09-01T11:47:11;100740.50;;;21.17;64.13
20696;BME280;10507;52.754;13.040;2022-09-01T11:49:48;100643.63;;;21.08;62.88
20696;BME280;10507;52.754;13.040;2022-09-01T11:52:19;100718.47;;;21.21;63.42
20696;BME280;10507;52.754;13.040;2022-09-01T11:54:48;100738.91;;;21.25;63.95
20696;BME280;10507;52.754;13.040;2022-09-01T11:57:29;100717.03;;;21.16;63.94
20696;BME280;10507;52.754;13.040;2022-09-01T12:00:02;100640.34;;;20.95;63.18
20696;BME280;10507;52.754;13.040;2022-09-01T12:02:33;100792.09;;;21.37;64.37
20696;BME280;10507;52.754;13.040;2022-09-01T12:05:23;100691.88;;;21.34;62.55
20696;BME280;10507;52.754;13.040;2022-09-01T12:07:51;100751.06;;;21.59;62.73
20696;BME280;10507;52.754;13.040;2022-09-01T12:10:23;100674.88;;;21.51;61.53
20696;BME280;10507;52.754;13.040;2022-09-01T12:13:00;100547.41;;;21.21;59.94
20696;BME280;10507;52.754;13.040;2022-09-01T12:15:29;100614.03;;;21.05;61.95
20696;BME280;10507;52.754;13.040;2022-09-01T12:18:13;100651.50;;;20.82;63.42
20696;BME280;10507;52.754;13.040;2022-09-01T12:20:45;100787.94;;;21.23;64.41
20696;BME280;10507;52.754;13.040;2022-09-01T12:23:21;100715.66;;;21.42;62.40
20696;BME280;10507;52.754;13.040;2022-09-01T12:25:52;100768.81;;;21.64;62.15
20696;BME280;10507;52.754;13.040;2022-09-01T12:28:22;100835.72;;;21.84;63.59
20696;BME280;10507;52.754;13.040;2022-09-01T12:30:53;100685.88;;;21.40;63.33
20696;BME280;10507;52.754;13.040;2022-09-01T12:33:22;100769.09;;;21.41;64.38
20696;BME280;10507;52.754;13.040;2022-09-01T12:35:51;100760.34;;;21.67;62.80
20696;BME280;10507;52.754;13.040;2022-09-01T12:38:28;100797.66;;;21.84;62.76
20696;BME280;10507;52.754;13.040;2022-09-01T12:40:57;100745.00;;;21.85;62.31
20696;BME280;10507;52.754;13.040;2022-09-01T12:43:33;100846.81;;;22.10;63.48
20696;BME280;10507;52.754;13.040;2022-09-01T12:46:05;100821.88;;;22.15;63.22
20696;BME280;10507;52.754;13.040;2022-09-01T12:48:37;100848.75;;;22.47;62.18
20696;BME280;10507;52.754;13.040;2022-09-01T12:51:15;100886.22;;;22.63;62.41
20696;BME280;10507;52.754;13.040;2022-09-01T12:53:50;100804.63;;;22.53;61.76
20696;BME280;10507;52.754;13.040;2022-09-01T12:56:24;100815.94;;;22.76;61.18
20696;BME280;10507;52.754;13.040;2022-09-01T12:59:05;100797.28;;;22.81;60.87
20696;BME280;10507;52.754;13.040;2022-09-01T13:01:42;100758.25;;;22.45;62.38
20696;BME280;10507;52.754;13.040;2022-09-01T13:04:22;100771.19;;;22.33;62.63
20696;BME280;10507;52.754;13.040;2022-09-01T13:06:51;100778.53;;;22.23;63.16
20696;BME280;10507;52.754;13.040;2022-09-01T13:09:20;100794.97;;;22.31;63.38
20696;BME280;10507;52.754;13.040;2022-09-01T13:11:48;100661.84;;;22.20;60.49
20696;BME280;10507;52.754;13.040;2022-09-01T13:14:33;100753.66;;;22.46;61.41
20696;BME280;10507;52.754;13.040;2022-09-01T13:17:03;100678.59;;;22.25;61.06
20696;BME280;10507;52.754;13.040;2022-09-01T13:19:40;100640.22;;;22.46;58.91
20696;BME280;10507;52.754;13.040;2022-09-01T13:22:08;100518.56;;;22.03;58.42